sensor_id;sensor_type;location;lat;lon;timestamp;P1;durP1;ratioP1;P2;durP2;ratioP2
26588;SDS011;14235;48.532;8.722;2023-07-28T00:00:48;4.25;;;2.80;;
26588;SDS011;14235;48.532;8.722;2023-07-28T00:03:14;2.45;;;2.25;;
26588;SDS011;14235;48.532;8.722;2023-07-28T00:05:40;3.10;;;2.70;;
26588;SDS011;14235;48.532;8.722;2023-07-28T00:08:06;6.05;;;2.70;;
26588;SDS011;14235;48.532;8.722;2023-07-28T00:10:32;3.38;;;2.53;;
26588;SDS011;14235;48.532;8.722;2023-07-28T00:13:01;3.20;;;2.90;;
26588;SDS011;14235;48.532;8.722;2023-07-28T00:15:31;2.97;;;2.70;;
26588;SDS011;14235;48.532;8.722;2023-07-28T00:17:57;2.80;;;2.60;;
26588;SDS011;14235;48.532;8.722;2023-07-28T00:20:25;2.55;;;2.35;;
26588;SDS011;14235;48.532;8.722;2023-07-28T00:22:51;3.78;;;2.78;;
26588;SDS011;14235;48.532;8.722;2023-07-28T00:25:17;4.13;;;2.50;;
26588;SDS011;14235;48.532;8.722;2023-07-28T00:27:47;3.05;;;2.85;;
26588;SDS011;14235;48.532;8.722;2023-07-28T00:30:13;3.00;;;2.80;;
26588;SDS011;14235;48.532;8.722;2023-07-28T00:32:38;3.88;;;2.50;;
26588;SDS011;14235;48.532;8.722;2023-07-28T00:35:04;3.03;;;2.72;;
26588;SDS011;14235;48.532;8.722;2023-07-28T00:37:31;2.47;;;2.35;;
26588;SDS011;14235;48.532;8.722;2023-07-28T00:39:57;2.50;;;2.30;;
26588;SDS011;14235;48.532;8.722;2023-07-28T00:42:22;4.30;;;3.05;;
26588;SDS011;14235;48.532;8.722;2023-07-28T00:44:48;3.08;;;2.50;;
26588;SDS011;14235;48.532;8.722;2023-07-28T00:47:14;4.50;;;2.60;;
26588;SDS011;14235;48.532;8.722;2023-07-28T00:49:40;2.88;;;2.55;;
26588;SDS011;14235;48.532;8.722;2023-07-28T00:52:07;2.70;;;2.40;;
26588;SDS011;14235;48.532;8.722;2023-07-28T00:54:33;3.30;;;2.38;;
26588;SDS011;14235;48.532;8.722;2023-07-28T00:57:00;3.13;;;2.55;;
26588;SDS011;14235;48.532;8.722;2023-07-28T00:59:32;3.25;;;2.90;;
26588;SDS011;14235;48.532;8.722;2023-07-28T01:02:01;3.05;;;2.85;;
26588;SDS011;14235;48.532;8.722;2023-07-28T01:04:27;2.78;;;2.58;;
26588;SDS011;14235;48.532;8.722;2023-07-28T01:07:01;2.30;;;2.10;;
26588;SDS011;14235;48.532;8.722;2023-07-28T01:09:31;2.90;;;2.50;;
26588;SDS011;14235;48.532;8.722;2023-07-28T01:12:07;3.70;;;2.42;;
26588;SDS011;14235;48.532;8.722;2023-07-28T01:14:34;3.00;;;2.70;;
26588;SDS011;14235;48.532;8.722;2023-07-28T01:17:00;2.53;;;2.40;;
26588;SDS011;14235;48.532;8.722;2023-07-28T01:19:26;2.97;;;2.78;;
26588;SDS011;14235;48.532;8.722;2023-07-28T01:24:39;3.75;;;2.72;;
26588;SDS011;14235;48.532;8.722;2023-07-28T01:27:15;4.00;;;2.75;;
26588;SDS011;14235;48.532;8.722;2023-07-28T01:29:41;4.72;;;3.25;;
26588;SDS011;14235;48.532;8.722;2023-07-28T01:32:07;3.90;;;3.40;;
26588;SDS011;14235;48.532;8.722;2023-07-28T01:34:36;3.15;;;2.90;;
26588;SDS011;14235;48.532;8.722;2023-07-28T01:37:02;4.28;;;3.60;;
26588;SDS011;14235;48.532;8.722;2023-07-28T01:39:28;4.75;;;3.25;;
26588;SDS011;14235;48.532;8.722;2023-07-28T01:41:54;2.92;;;2.63;;
26588;SDS011;14235;48.532;8.722;2023-07-28T01:44:19;2.78;;;2.50;;
26588;SDS011;14235;48.532;8.722;2023-07-28T01:46:46;3.03;;;2.72;;
26588;SDS011;14235;48.532;8.722;2023-07-28T01:49:12;2.70;;;2.50;;
26588;SDS011;14235;48.532;8.722;2023-07-28T01:51:39;4.95;;;2.75;;
26588;SDS011;14235;48.532;8.722;2023-07-28T01:54:06;2.40;;;2.20;;
26588;SDS011;14235;48.532;8.722;2023-07-28T01:56:37;6.60;;;2.35;;
26588;SDS011;14235;48.532;8.722;2023-07-28T01:59:04;3.53;;;2.63;;
26588;SDS011;14235;48.532;8.722;2023-07-28T02:01:30;2.75;;;2.47;;
26588;SDS011;14235;48.532;8.722;2023-07-28T02:03:55;3.13;;;2.60;;
26588;SDS011;14235;48.532;8.722;2023-07-28T02:06:21;3.10;;;2.42;;
26588;SDS011;14235;48.532;8.722;2023-07-28T02:08:47;3.55;;;2.40;;
26588;SDS011;14235;48.532;8.722;2023-07-28T02:11:12;4.85;;;2.53;;
26588;SDS011;14235;48.532;8.722;2023-07-28T02:13:38;3.15;;;2.70;;
26588;SDS011;14235;48.532;8.722;2023-07-28T02:16:04;2.45;;;2.35;;
26588;SDS011;14235;48.532;8.722;2023-07-28T02:18:30;2.67;;;2.47;;
26588;SDS011;14235;48.532;8.722;2023-07-28T02:20:55;5.15;;;3.15;;
26588;SDS011;14235;48.532;8.722;2023-07-28T02:23:21;2.92;;;2.58;;
26588;SDS011;14235;48.532;8.722;2023-07-28T02:25:47;3.65;;;3.35;;
26588;SDS011;14235;48.532;8.722;2023-07-28T02:28:13;5.90;;;2.95;;
26588;SDS011;14235;48.532;8.722;2023-07-28T02:30:39;3.38;;;3.08;;
26588;SDS011;14235;48.532;8.722;2023-07-28T02:33:05;4.60;;;2.78;;
26588;SDS011;14235;48.532;8.722;2023-07-28T02:35:31;2.90;;;2.40;;
26588;SDS011;14235;48.532;8.722;2023-07-28T02:37:57;2.70;;;2.45;;
26588;SDS011;14235;48.532;8.722;2023-07-28T02:40:23;2.63;;;2.38;;
26588;SDS011;14235;48.532;8.722;2023-07-28T02:42:49;2.80;;;2.42;;
26588;SDS011;14235;48.532;8.722;2023-07-28T02:45:15;3.15;;;2.63;;
26588;SDS011;14235;48.532;8.722;2023-07-28T02:47:43;3.20;;;2.67;;
26588;SDS011;14235;48.532;8.722;2023-07-28T02:50:09;3.03;;;2.83;;
26588;SDS011;14235;48.532;8.722;2023-07-28T02:52:35;5.38;;;3.45;;
26588;SDS011;14235;48.532;8.722;2023-07-28T02:55:03;3.67;;;3.38;;
26588;SDS011;14235;48.532;8.722;2023-07-28T02:57:29;4.65;;;3.30;;
26588;SDS011;14235;48.532;8.722;2023-07-28T02:59:55;4.15;;;3.53;;
26588;SDS011;14235;48.532;8.722;2023-07-28T03:02:22;3.80;;;3.50;;
26588;SDS011;14235;48.532;8.722;2023-07-28T03:04:49;5.13;;;3.70;;
26588;SDS011;14235;48.532;8.722;2023-07-28T03:07:16;4.18;;;3.78;;
26588;SDS011;14235;48.532;8.722;2023-07-28T03:09:42;4.25;;;3.70;;
26588;SDS011;14235;48.532;8.722;2023-07-28T03:12:08;4.10;;;3.70;;
26588;SDS011;14235;48.532;8.722;2023-07-28T03:14:35;4.25;;;3.85;;
26588;SDS011;14235;48.532;8.722;2023-07-28T03:17:01;3.92;;;3.50;;
26588;SDS011;14235;48.532;8.722;2023-07-28T03:19:28;4.68;;;3.75;;
26588;SDS011;14235;48.532;8.722;2023-07-28T03:21:54;3.90;;;3.55;;
26588;SDS011;14235;48.532;8.722;2023-07-28T03:24:20;4.07;;;3.67;;
26588;SDS011;14235;48.532;8.722;2023-07-28T03:26:46;6.20;;;3.67;;
26588;SDS011;14235;48.532;8.722;2023-07-28T03:29:12;4.55;;;4.10;;
26588;SDS011;14235;48.532;8.722;2023-07-28T03:31:43;3.70;;;3.30;;
26588;SDS011;14235;48.532;8.722;2023-07-28T03:34:18;3.28;;;3.03;;
26588;SDS011;14235;48.532;8.722;2023-07-28T03:36:44;4.18;;;3.45;;
26588;SDS011;14235;48.532;8.722;2023-07-28T03:39:09;5.53;;;3.25;;
26588;SDS011;14235;48.532;8.722;2023-07-28T03:41:35;4.63;;;3.60;;
26588;SDS011;14235;48.532;8.722;2023-07-28T03:44:02;3.70;;;3.40;;
26588;SDS011;14235;48.532;8.722;2023-07-28T03:46:28;4.40;;;4.00;;
26588;SDS011;14235;48.532;8.722;2023-07-28T03:48:53;5.25;;;3.92;;
26588;SDS011;14235;48.532;8.722;2023-07-28T03:51:19;4.80;;;3.47;;
26588;SDS011;14235;48.532;8.722;2023-07-28T03:53:45;5.70;;;3.83;;
26588;SDS011;14235;48.532;8.722;2023-07-28T03:56:10;4.05;;;3.60;;
26588;SDS011;14235;48.532;8.722;2023-07-28T03:58:36;3.97;;;3.58;;
26588;SDS011;14235;48.532;8.722;2023-07-28T04:01:02;4.32;;;3.90;;
26588;SDS011;14235;48.532;8.722;2023-07-28T04:03:28;6.13;;;3.88;;
26588;SDS011;14235;48.532;8.722;2023-07-28T04:05:54;4.72;;;3.53;;
26588;SDS011;14235;48.532;8.722;2023-07-28T04:08:19;4.15;;;3.75;;
26588;SDS011;14235;48.532;8.722;2023-07-28T04:10:45;3.95;;;3.47;;
26588;SDS011;14235;48.532;8.722;2023-07-28T04:13:11;3.75;;;3.45;;
26588;SDS011;14235;48.532;8.722;2023-07-28T04:15:37;4.03;;;3.58;;
26588;SDS011;14235;48.532;8.722;2023-07-28T04:18:04;4.22;;;3.60;;
26588;SDS011;14235;48.532;8.722;2023-07-28T04:20:30;5.63;;;3.55;;
26588;SDS011;14235;48.532;8.722;2023-07-28T04:22:56;4.38;;;3.53;;
26588;SDS011;14235;48.532;8.722;2023-07-28T04:25:22;3.20;;;3.00;;
26588;SDS011;14235;48.532;8.722;2023-07-28T04:27:47;3.67;;;3.33;;
26588;SDS011;14235;48.532;8.722;2023-07-28T04:30:15;3.70;;;3.40;;
26588;SDS011;14235;48.532;8.722;2023-07-28T04:32:44;4.18;;;3.25;;
26588;SDS011;14235;48.532;8.722;2023-07-28T04:35:10;4.60;;;3.47;;
26588;SDS011;14235;48.532;8.722;2023-07-28T04:37:36;5.10;;;3.60;;
26588;SDS011;14235;48.532;8.722;2023-07-28T04:40:02;4.85;;;3.40;;
26588;SDS011;14235;48.532;8.722;2023-07-28T04:42:34;3.63;;;3.33;;
26588;SDS011;14235;48.532;8.722;2023-07-28T04:44:59;5.18;;;3.30;;
26588;SDS011;14235;48.532;8.722;2023-07-28T04:47:25;4.53;;;3.53;;
26588;SDS011;14235;48.532;8.722;2023-07-28T04:49:51;3.80;;;3.40;;
26588;SDS011;14235;48.532;8.722;2023-07-28T04:52:16;3.88;;;3.58;;
26588;SDS011;14235;48.532;8.722;2023-07-28T04:54:42;4.63;;;3.38;;
26588;SDS011;14235;48.532;8.722;2023-07-28T04:57:08;3.90;;;3.50;;
26588;SDS011;14235;48.532;8.722;2023-07-28T04:59:33;4.05;;;3.75;;
26588;SDS011;14235;48.532;8.722;2023-07-28T05:01:59;3.95;;;3.35;;
26588;SDS011;14235;48.532;8.722;2023-07-28T05:04:25;4.15;;;3.58;;
26588;SDS011;14235;48.532;8.722;2023-07-28T05:06:51;3.95;;;3.65;;
26588;SDS011;14235;48.532;8.722;2023-07-28T05:09:16;3.92;;;3.50;;
26588;SDS011;14235;48.532;8.722;2023-07-28T05:11:42;3.25;;;3.05;;
26588;SDS011;14235;48.532;8.722;2023-07-28T05:14:08;4.80;;;3.45;;
26588;SDS011;14235;48.532;8.722;2023-07-28T05:16:34;5.47;;;3.70;;
26588;SDS011;14235;48.532;8.722;2023-07-28T05:19:00;3.88;;;3.58;;
26588;SDS011;14235;48.532;8.722;2023-07-28T05:21:25;4.63;;;3.53;;
26588;SDS011;14235;48.532;8.722;2023-07-28T05:23:51;6.55;;;4.90;;
26588;SDS011;14235;48.532;8.722;2023-07-28T05:26:17;7.53;;;4.82;;
26588;SDS011;14235;48.532;8.722;2023-07-28T05:28:47;5.25;;;4.22;;
26588;SDS011;14235;48.532;8.722;2023-07-28T05:31:13;3.78;;;3.47;;
26588;SDS011;14235;48.532;8.722;2023-07-28T05:33:40;6.10;;;3.78;;
26588;SDS011;14235;48.532;8.722;2023-07-28T05:36:06;5.32;;;3.70;;
26588;SDS011;14235;48.532;8.722;2023-07-28T05:38:32;3.90;;;3.60;;
26588;SDS011;14235;48.532;8.722;2023-07-28T05:40:58;4.40;;;3.58;;
26588;SDS011;14235;48.532;8.722;2023-07-28T05:43:28;4.85;;;3.50;;
26588;SDS011;14235;48.532;8.722;2023-07-28T05:45:55;4.30;;;3.83;;
26588;SDS011;14235;48.532;8.722;2023-07-28T05:48:22;5.63;;;3.78;;
26588;SDS011;14235;48.532;8.722;2023-07-28T05:50:48;3.83;;;3.53;;
26588;SDS011;14235;48.532;8.722;2023-07-28T05:53:17;6.72;;;4.35;;
26588;SDS011;14235;48.532;8.722;2023-07-28T05:55:44;4.55;;;3.38;;
26588;SDS011;14235;48.532;8.722;2023-07-28T05:58:10;5.32;;;4.20;;
26588;SDS011;14235;48.532;8.722;2023-07-28T06:00:40;6.25;;;4.07;;
26588;SDS011;14235;48.532;8.722;2023-07-28T06:03:12;4.80;;;3.67;;
26588;SDS011;14235;48.532;8.722;2023-07-28T06:05:38;4.10;;;3.70;;
26588;SDS011;14235;48.532;8.722;2023-07-28T06:08:05;3.83;;;3.30;;
26588;SDS011;14235;48.532;8.722;2023-07-28T06:10:31;3.78;;;3.40;;
26588;SDS011;14235;48.532;8.722;2023-07-28T06:12:57;4.00;;;3.60;;
26588;SDS011;14235;48.532;8.722;2023-07-28T06:15:24;4.72;;;3.80;;
26588;SDS011;14235;48.532;8.722;2023-07-28T06:17:52;3.97;;;3.67;;
26588;SDS011;14235;48.532;8.722;2023-07-28T06:20:18;3.58;;;3.38;;
26588;SDS011;14235;48.532;8.722;2023-07-28T06:22:44;3.97;;;3.58;;
26588;SDS011;14235;48.532;8.722;2023-07-28T06:25:10;4.03;;;3.63;;
26588;SDS011;14235;48.532;8.722;2023-07-28T06:27:37;4.57;;;3.50;;
26588;SDS011;14235;48.532;8.722;2023-07-28T06:30:04;3.33;;;3.08;;
26588;SDS011;14235;48.532;8.722;2023-07-28T06:32:30;3.70;;;3.40;;
26588;SDS011;14235;48.532;8.722;2023-07-28T06:34:58;3.78;;;3.20;;
26588;SDS011;14235;48.532;8.722;2023-07-28T06:37:24;3.80;;;3.50;;
26588;SDS011;14235;48.532;8.722;2023-07-28T06:39:50;4.28;;;3.40;;
26588;SDS011;14235;48.532;8.722;2023-07-28T06:42:16;6.70;;;3.63;;
26588;SDS011;14235;48.532;8.722;2023-07-28T06:44:48;3.50;;;3.22;;
26588;SDS011;14235;48.532;8.722;2023-07-28T06:47:15;3.50;;;3.13;;
26588;SDS011;14235;48.532;8.722;2023-07-28T06:49:40;3.67;;;3.30;;
26588;SDS011;14235;48.532;8.722;2023-07-28T06:52:06;4.05;;;3.60;;
26588;SDS011;14235;48.532;8.722;2023-07-28T06:54:32;4.38;;;3.25;;
26588;SDS011;14235;48.532;8.722;2023-07-28T06:56:58;3.63;;;3.33;;
26588;SDS011;14235;48.532;8.722;2023-07-28T06:59:23;4.00;;;3.15;;
26588;SDS011;14235;48.532;8.722;2023-07-28T07:01:49;3.85;;;3.22;;
26588;SDS011;14235;48.532;8.722;2023-07-28T07:04:15;3.60;;;3.05;;
26588;SDS011;14235;48.532;8.722;2023-07-28T07:06:41;4.45;;;3.50;;
26588;SDS011;14235;48.532;8.722;2023-07-28T07:09:06;4.10;;;3.42;;
26588;SDS011;14235;48.532;8.722;2023-07-28T07:11:33;3.65;;;3.35;;
26588;SDS011;14235;48.532;8.722;2023-07-28T07:13:59;3.47;;;2.90;;
26588;SDS011;14235;48.532;8.722;2023-07-28T07:16:24;4.13;;;3.30;;
26588;SDS011;14235;48.532;8.722;2023-07-28T07:18:51;3.85;;;3.47;;
26588;SDS011;14235;48.532;8.722;2023-07-28T07:21:17;3.95;;;3.30;;
26588;SDS011;14235;48.532;8.722;2023-07-28T07:23:42;5.00;;;3.20;;
26588;SDS011;14235;48.532;8.722;2023-07-28T07:26:08;3.78;;;3.33;;
26588;SDS011;14235;48.532;8.722;2023-07-28T07:28:34;3.42;;;2.97;;
26588;SDS011;14235;48.532;8.722;2023-07-28T07:31:00;3.20;;;3.00;;
26588;SDS011;14235;48.532;8.722;2023-07-28T07:33:26;3.80;;;3.50;;
26588;SDS011;14235;48.532;8.722;2023-07-28T07:35:52;4.68;;;3.25;;
26588;SDS011;14235;48.532;8.722;2023-07-28T07:38:18;3.85;;;3.45;;
26588;SDS011;14235;48.532;8.722;2023-07-28T07:40:47;3.38;;;3.08;;
26588;SDS011;14235;48.532;8.722;2023-07-28T07:43:13;3.50;;;3.17;;
26588;SDS011;14235;48.532;8.722;2023-07-28T07:45:45;5.00;;;2.97;;
26588;SDS011;14235;48.532;8.722;2023-07-28T07:48:12;3.67;;;3.38;;
26588;SDS011;14235;48.532;8.722;2023-07-28T07:50:38;4.18;;;3.33;;
26588;SDS011;14235;48.532;8.722;2023-07-28T07:53:04;3.38;;;3.08;;
26588;SDS011;14235;48.532;8.722;2023-07-28T07:55:30;3.70;;;3.38;;
26588;SDS011;14235;48.532;8.722;2023-07-28T07:57:56;4.13;;;3.80;;
26588;SDS011;14235;48.532;8.722;2023-07-28T08:00:22;3.25;;;3.05;;
26588;SDS011;14235;48.532;8.722;2023-07-28T08:02:49;3.38;;;3.17;;
26588;SDS011;14235;48.532;8.722;2023-07-28T08:05:15;3.22;;;2.97;;
26588;SDS011;14235;48.532;8.722;2023-07-28T08:07:41;3.15;;;2.95;;
26588;SDS011;14235;48.532;8.722;2023-07-28T08:10:07;4.68;;;3.05;;
26588;SDS011;14235;48.532;8.722;2023-07-28T08:12:33;3.28;;;2.90;;
26588;SDS011;14235;48.532;8.722;2023-07-28T08:14:59;3.13;;;2.83;;
26588;SDS011;14235;48.532;8.722;2023-07-28T08:17:25;3.80;;;3.50;;
26588;SDS011;14235;48.532;8.722;2023-07-28T08:19:50;2.92;;;2.72;;
26588;SDS011;14235;48.532;8.722;2023-07-28T08:22:16;3.08;;;2.83;;
26588;SDS011;14235;48.532;8.722;2023-07-28T08:24:42;2.53;;;2.42;;
26588;SDS011;14235;48.532;8.722;2023-07-28T08:27:08;2.75;;;2.63;;
26588;SDS011;14235;48.532;8.722;2023-07-28T08:29:33;3.40;;;3.00;;
26588;SDS011;14235;48.532;8.722;2023-07-28T08:31:59;2.65;;;2.45;;
26588;SDS011;14235;48.532;8.722;2023-07-28T08:34:25;2.72;;;2.33;;
26588;SDS011;14235;48.532;8.722;2023-07-28T08:36:51;3.13;;;2.72;;
26588;SDS011;14235;48.532;8.722;2023-07-28T08:39:19;2.85;;;2.60;;
26588;SDS011;14235;48.532;8.722;2023-07-28T08:41:45;2.88;;;2.50;;
26588;SDS011;14235;48.532;8.722;2023-07-28T08:44:11;3.00;;;2.80;;
26588;SDS011;14235;48.532;8.722;2023-07-28T08:46:36;4.05;;;2.55;;
26588;SDS011;14235;48.532;8.722;2023-07-28T08:49:03;2.72;;;2.60;;
26588;SDS011;14235;48.532;8.722;2023-07-28T08:51:29;2.55;;;2.35;;
26588;SDS011;14235;48.532;8.722;2023-07-28T08:53:54;2.75;;;2.55;;
26588;SDS011;14235;48.532;8.722;2023-07-28T08:56:20;3.05;;;2.47;;
26588;SDS011;14235;48.532;8.722;2023-07-28T08:58:46;2.42;;;2.30;;
26588;SDS011;14235;48.532;8.722;2023-07-28T09:01:12;2.55;;;2.45;;
26588;SDS011;14235;48.532;8.722;2023-07-28T09:03:39;2.58;;;2.38;;
26588;SDS011;14235;48.532;8.722;2023-07-28T09:06:06;2.28;;;2.17;;
26588;SDS011;14235;48.532;8.722;2023-07-28T09:08:35;2.70;;;2.50;;
26588;SDS011;14235;48.532;8.722;2023-07-28T09:11:03;2.75;;;2.60;;
26588;SDS011;14235;48.532;8.722;2023-07-28T09:13:38;2.67;;;2.47;;
26588;SDS011;14235;48.532;8.722;2023-07-28T09:16:17;3.30;;;2.50;;
26588;SDS011;14235;48.532;8.722;2023-07-28T09:18:43;2.58;;;2.38;;
26588;SDS011;14235;48.532;8.722;2023-07-28T09:21:19;2.88;;;2.67;;
26588;SDS011;14235;48.532;8.722;2023-07-28T09:23:46;2.95;;;2.63;;
26588;SDS011;14235;48.532;8.722;2023-07-28T09:26:13;2.60;;;2.42;;
26588;SDS011;14235;48.532;8.722;2023-07-28T09:28:40;2.70;;;2.50;;
26588;SDS011;14235;48.532;8.722;2023-07-28T09:31:06;2.42;;;2.22;;
26588;SDS011;14235;48.532;8.722;2023-07-28T09:33:33;2.60;;;2.50;;
26588;SDS011;14235;48.532;8.722;2023-07-28T09:36:06;2.75;;;2.40;;
26588;SDS011;14235;48.532;8.722;2023-07-28T09:38:39;2.67;;;2.40;;
26588;SDS011;14235;48.532;8.722;2023-07-28T09:41:07;2.83;;;2.63;;
26588;SDS011;14235;48.532;8.722;2023-07-28T09:43:37;2.75;;;2.20;;
26588;SDS011;14235;48.532;8.722;2023-07-28T09:46:04;2.60;;;2.50;;
26588;SDS011;14235;48.532;8.722;2023-07-28T09:48:31;2.20;;;2.10;;
26588;SDS011;14235;48.532;8.722;2023-07-28T09:50:59;3.25;;;2.60;;
26588;SDS011;14235;48.532;8.722;2023-07-28T09:53:25;2.70;;;2.55;;
26588;SDS011;14235;48.532;8.722;2023-07-28T09:55:54;5.32;;;2.50;;
26588;SDS011;14235;48.532;8.722;2023-07-28T09:58:21;2.83;;;2.63;;
26588;SDS011;14235;48.532;8.722;2023-07-28T10:00:49;3.22;;;2.90;;
26588;SDS011;14235;48.532;8.722;2023-07-28T10:03:16;2.95;;;2.70;;
26588;SDS011;14235;48.532;8.722;2023-07-28T10:05:42;2.80;;;2.28;;
26588;SDS011;14235;48.532;8.722;2023-07-28T10:08:09;2.70;;;2.50;;
26588;SDS011;14235;48.532;8.722;2023-07-28T10:10:37;2.25;;;2.15;;
26588;SDS011;14235;48.532;8.722;2023-07-28T10:13:03;2.70;;;2.50;;
26588;SDS011;14235;48.532;8.722;2023-07-28T10:15:30;2.80;;;2.47;;
26588;SDS011;14235;48.532;8.722;2023-07-28T10:17:56;2.92;;;2.60;;
26588;SDS011;14235;48.532;8.722;2023-07-28T10:23:05;2.50;;;2.30;;
26588;SDS011;14235;48.532;8.722;2023-07-28T10:25:32;3.00;;;2.80;;
26588;SDS011;14235;48.532;8.722;2023-07-28T10:27:59;2.67;;;2.47;;
26588;SDS011;14235;48.532;8.722;2023-07-28T10:30:25;2.50;;;2.30;;
26588;SDS011;14235;48.532;8.722;2023-07-28T10:32:51;3.15;;;2.50;;
26588;SDS011;14235;48.532;8.722;2023-07-28T10:35:24;2.67;;;2.47;;
26588;SDS011;14235;48.532;8.722;2023-07-28T10:37:50;2.97;;;2.78;;
26588;SDS011;14235;48.532;8.722;2023-07-28T10:40:32;2.78;;;2.58;;
26588;SDS011;14235;48.532;8.722;2023-07-28T10:43:03;2.90;;;2.70;;
26588;SDS011;14235;48.532;8.722;2023-07-28T10:45:31;2.85;;;2.65;;
26588;SDS011;14235;48.532;8.722;2023-07-28T10:47:58;3.17;;;2.88;;
26588;SDS011;14235;48.532;8.722;2023-07-28T10:50:29;2.83;;;2.63;;
26588;SDS011;14235;48.532;8.722;2023-07-28T10:52:56;3.15;;;2.85;;
26588;SDS011;14235;48.532;8.722;2023-07-28T10:55:23;2.50;;;2.40;;
26588;SDS011;14235;48.532;8.722;2023-07-28T10:57:52;3.33;;;2.72;;
26588;SDS011;14235;48.532;8.722;2023-07-28T11:00:19;3.00;;;2.80;;
26588;SDS011;14235;48.532;8.722;2023-07-28T11:02:47;2.70;;;2.50;;
26588;SDS011;14235;48.532;8.722;2023-07-28T11:05:18;2.78;;;2.55;;
26588;SDS011;14235;48.532;8.722;2023-07-28T11:07:47;3.17;;;2.88;;
26588;SDS011;14235;48.532;8.722;2023-07-28T11:10:13;2.88;;;2.67;;
26588;SDS011;14235;48.532;8.722;2023-07-28T11:12:43;3.03;;;2.83;;
26588;SDS011;14235;48.532;8.722;2023-07-28T11:15:10;3.42;;;3.13;;
26588;SDS011;14235;48.532;8.722;2023-07-28T11:17:39;3.60;;;2.80;;
26588;SDS011;14235;48.532;8.722;2023-07-28T11:20:19;3.28;;;3.08;;
26588;SDS011;14235;48.532;8.722;2023-07-28T11:22:53;3.13;;;2.92;;
26588;SDS011;14235;48.532;8.722;2023-07-28T11:25:28;3.08;;;2.88;;
26588;SDS011;14235;48.532;8.722;2023-07-28T11:27:55;4.03;;;2.80;;
26588;SDS011;14235;48.532;8.722;2023-07-28T11:30:21;4.20;;;3.50;;
26588;SDS011;14235;48.532;8.722;2023-07-28T11:32:49;3.60;;;3.30;;
26588;SDS011;14235;48.532;8.722;2023-07-28T11:35:16;3.88;;;3.53;;
26588;SDS011;14235;48.532;8.722;2023-07-28T11:37:46;3.80;;;2.85;;
26588;SDS011;14235;48.532;8.722;2023-07-28T11:40:14;3.50;;;3.03;;
26588;SDS011;14235;48.532;8.722;2023-07-28T11:42:43;3.22;;;3.03;;
26588;SDS011;14235;48.532;8.722;2023-07-28T11:45:10;3.38;;;3.08;;
26588;SDS011;14235;48.532;8.722;2023-07-28T11:47:37;3.35;;;3.15;;
26588;SDS011;14235;48.532;8.722;2023-07-28T11:50:02;3.35;;;3.05;;
26588;SDS011;14235;48.532;8.722;2023-07-28T11:52:35;3.42;;;3.13;;
26588;SDS011;14235;48.532;8.722;2023-07-28T11:55:04;3.67;;;3.38;;
26588;SDS011;14235;48.532;8.722;2023-07-28T11:57:31;3.47;;;3.17;;
26588;SDS011;14235;48.532;8.722;2023-07-28T11:59:58;3.45;;;3.15;;
26588;SDS011;14235;48.532;8.722;2023-07-28T12:02:25;3.72;;;3.42;;
26588;SDS011;14235;48.532;8.722;2023-07-28T12:04:51;4.18;;;3.10;;
26588;SDS011;14235;48.532;8.722;2023-07-28T12:07:29;3.10;;;2.90;;
26588;SDS011;14235;48.532;8.722;2023-07-28T12:10:05;3.35;;;3.10;;
26588;SDS011;14235;48.532;8.722;2023-07-28T12:12:41;3.78;;;3.47;;
26588;SDS011;14235;48.532;8.722;2023-07-28T12:15:18;3.67;;;3.38;;
26588;SDS011;14235;48.532;8.722;2023-07-28T12:18:01;3.50;;;3.30;;
26588;SDS011;14235;48.532;8.722;2023-07-28T12:20:44;3.63;;;3.40;;
26588;SDS011;14235;48.532;8.722;2023-07-28T12:23:15;3.53;;;3.33;;
26588;SDS011;14235;48.532;8.722;2023-07-28T12:25:45;3.85;;;3.53;;
26588;SDS011;14235;48.532;8.722;2023-07-28T12:28:11;5.57;;;4.22;;
26588;SDS011;14235;48.532;8.722;2023-07-28T12:30:37;5.13;;;4.00;;
26588;SDS011;14235;48.532;8.722;2023-07-28T12:33:04;4.60;;;4.13;;
26588;SDS011;14235;48.532;8.722;2023-07-28T12:35:30;4.03;;;3.28;;
26588;SDS011;14235;48.532;8.722;2023-07-28T12:37:59;3.30;;;3.10;;
26588;SDS011;14235;48.532;8.722;2023-07-28T12:40:26;3.92;;;3.63;;
26588;SDS011;14235;48.532;8.722;2023-07-28T12:42:54;4.07;;;3.78;;
26588;SDS011;14235;48.532;8.722;2023-07-28T12:45:21;3.60;;;3.30;;
26588;SDS011;14235;48.532;8.722;2023-07-28T12:47:47;3.00;;;2.75;;
26588;SDS011;14235;48.532;8.722;2023-07-28T12:50:13;3.33;;;2.70;;
26588;SDS011;14235;48.532;8.722;2023-07-28T12:52:38;3.20;;;2.90;;
26588;SDS011;14235;48.532;8.722;2023-07-28T12:55:04;3.33;;;2.83;;
26588;SDS011;14235;48.532;8.722;2023-07-28T12:57:31;2.90;;;2.70;;
26588;SDS011;14235;48.532;8.722;2023-07-28T12:59:57;3.40;;;2.88;;
26588;SDS011;14235;48.532;8.722;2023-07-28T13:02:23;3.22;;;2.92;;
26588;SDS011;14235;48.532;8.722;2023-07-28T13:04:52;2.70;;;2.50;;
26588;SDS011;14235;48.532;8.722;2023-07-28T13:07:18;2.60;;;2.40;;
26588;SDS011;14235;48.532;8.722;2023-07-28T13:09:44;3.10;;;2.90;;
26588;SDS011;14235;48.532;8.722;2023-07-28T13:12:10;2.78;;;2.47;;
26588;SDS011;14235;48.532;8.722;2023-07-28T13:14:36;2.95;;;2.75;;
26588;SDS011;14235;48.532;8.722;2023-07-28T13:17:02;3.15;;;2.92;;
26588;SDS011;14235;48.532;8.722;2023-07-28T13:19:28;3.50;;;3.08;;
26588;SDS011;14235;48.532;8.722;2023-07-28T13:21:56;3.00;;;2.80;;
26588;SDS011;14235;48.532;8.722;2023-07-28T13:24:21;2.78;;;2.45;;
26588;SDS011;14235;48.532;8.722;2023-07-28T13:26:47;2.70;;;2.55;;
26588;SDS011;14235;48.532;8.722;2023-07-28T13:29:13;2.85;;;2.65;;
26588;SDS011;14235;48.532;8.722;2023-07-28T13:31:38;3.10;;;2.90;;
26588;SDS011;14235;48.532;8.722;2023-07-28T13:34:04;3.10;;;2.63;;
26588;SDS011;14235;48.532;8.722;2023-07-28T13:36:30;5.05;;;2.83;;
26588;SDS011;14235;48.532;8.722;2023-07-28T13:38:56;3.47;;;3.28;;
26588;SDS011;14235;48.532;8.722;2023-07-28T13:41:21;4.25;;;2.80;;
26588;SDS011;14235;48.532;8.722;2023-07-28T13:43:47;4.18;;;3.25;;
26588;SDS011;14235;48.532;8.722;2023-07-28T13:46:13;3.28;;;3.00;;
26588;SDS011;14235;48.532;8.722;2023-07-28T13:48:39;3.40;;;3.00;;
26588;SDS011;14235;48.532;8.722;2023-07-28T13:51:05;3.42;;;3.05;;
26588;SDS011;14235;48.532;8.722;2023-07-28T13:53:31;3.10;;;2.90;;
26588;SDS011;14235;48.532;8.722;2023-07-28T13:55:59;3.05;;;2.85;;
26588;SDS011;14235;48.532;8.722;2023-07-28T13:58:25;3.50;;;3.20;;
26588;SDS011;14235;48.532;8.722;2023-07-28T14:00:51;3.25;;;3.03;;
26588;SDS011;14235;48.532;8.722;2023-07-28T14:03:17;5.18;;;3.10;;
26588;SDS011;14235;48.532;8.722;2023-07-28T14:05:43;3.50;;;3.30;;
26588;SDS011;14235;48.532;8.722;2023-07-28T14:08:10;3.55;;;3.08;;
26588;SDS011;14235;48.532;8.722;2023-07-28T14:10:36;3.83;;;3.10;;
26588;SDS011;14235;48.532;8.722;2023-07-28T14:13:03;4.03;;;2.90;;
26588;SDS011;14235;48.532;8.722;2023-07-28T14:15:29;3.42;;;3.22;;
26588;SDS011;14235;48.532;8.722;2023-07-28T14:17:54;3.92;;;3.40;;
26588;SDS011;14235;48.532;8.722;2023-07-28T14:20:20;3.58;;;3.28;;
26588;SDS011;14235;48.532;8.722;2023-07-28T14:22:46;3.83;;;3.50;;
26588;SDS011;14235;48.532;8.722;2023-07-28T14:25:12;3.70;;;3.40;;
26588;SDS011;14235;48.532;8.722;2023-07-28T14:27:38;3.40;;;3.08;;
26588;SDS011;14235;48.532;8.722;2023-07-28T14:30:04;3.88;;;3.17;;
26588;SDS011;14235;48.532;8.722;2023-07-28T14:32:30;3.45;;;3.25;;
26588;SDS011;14235;48.532;8.722;2023-07-28T14:34:56;3.90;;;3.50;;
26588;SDS011;14235;48.532;8.722;2023-07-28T14:37:22;3.95;;;3.50;;
26588;SDS011;14235;48.532;8.722;2023-07-28T14:39:48;3.50;;;3.20;;
26588;SDS011;14235;48.532;8.722;2023-07-28T14:42:13;4.22;;;3.22;;
26588;SDS011;14235;48.532;8.722;2023-07-28T14:44:39;3.67;;;3.38;;
26588;SDS011;14235;48.532;8.722;2023-07-28T14:47:05;5.45;;;3.13;;
26588;SDS011;14235;48.532;8.722;2023-07-28T14:49:31;3.85;;;3.40;;
26588;SDS011;14235;48.532;8.722;2023-07-28T14:51:57;4.22;;;3.50;;